sensor_id;sensor_type;location;lat;lon;timestamp;P1;durP1;ratioP1;P2;durP2;ratioP2
56173;SDS011;42058;52.308;20.924;2022-10-31T00:00:23;16.73;;;10.23;;
56173;SDS011;42058;52.308;20.924;2022-10-31T00:02:51;20.00;;;11.08;;
56173;SDS011;42058;52.308;20.924;2022-10-31T00:05:17;16.15;;;10.38;;
56173;SDS011;42058;52.308;20.924;2022-10-31T00:07:43;25.97;;;11.63;;
56173;SDS011;42058;52.308;20.924;2022-10-31T00:10:09;18.73;;;10.63;;
56173;SDS011;42058;52.308;20.924;2022-10-31T00:12:35;16.45;;;10.13;;
56173;SDS011;42058;52.308;20.924;2022-10-31T00:15:01;17.50;;;10.35;;
56173;SDS011;42058;52.308;20.924;2022-10-31T00:17:27;19.55;;;10.95;;
56173;SDS011;42058;52.308;20.924;2022-10-31T00:19:54;20.32;;;10.85;;
56173;SDS011;42058;52.308;20.924;2022-10-31T00:22:20;16.73;;;10.82;;
56173;SDS011;42058;52.308;20.924;2022-10-31T00:24:46;18.45;;;10.28;;
56173;SDS011;42058;52.308;20.924;2022-10-31T00:27:12;17.45;;;11.15;;
56173;SDS011;42058;52.308;20.924;2022-10-31T00:29:38;16.02;;;10.63;;
56173;SDS011;42058;52.308;20.924;2022-10-31T00:32:04;17.25;;;10.68;;
56173;SDS011;42058;52.308;20.924;2022-10-31T00:34:30;15.40;;;10.30;;
56173;SDS011;42058;52.308;20.924;2022-10-31T00:36:58;18.05;;;11.20;;
56173;SDS011;42058;52.308;20.924;2022-10-31T00:39:24;14.95;;;9.58;;
56173;SDS011;42058;52.308;20.924;2022-10-31T00:41:50;14.95;;;9.43;;
56173;SDS011;42058;52.308;20.924;2022-10-31T00:44:16;17.23;;;10.13;;
56173;SDS011;42058;52.308;20.924;2022-10-31T00:46:42;18.77;;;10.53;;
56173;SDS011;42058;52.308;20.924;2022-10-31T00:49:08;18.50;;;10.80;;
56173;SDS011;42058;52.308;20.924;2022-10-31T00:51:34;17.30;;;9.90;;
56173;SDS011;42058;52.308;20.924;2022-10-31T00:54:00;19.32;;;9.58;;
56173;SDS011;42058;52.308;20.924;2022-10-31T00:56:27;17.67;;;10.40;;
56173;SDS011;42058;52.308;20.924;2022-10-31T00:58:53;16.40;;;9.70;;
56173;SDS011;42058;52.308;20.924;2022-10-31T01:01:20;15.78;;;9.83;;
56173;SDS011;42058;52.308;20.924;2022-10-31T01:03:46;13.35;;;9.25;;
56173;SDS011;42058;52.308;20.924;2022-10-31T01:06:12;16.00;;;9.43;;
56173;SDS011;42058;52.308;20.924;2022-10-31T01:08:40;14.53;;;10.05;;
56173;SDS011;42058;52.308;20.924;2022-10-31T01:11:16;13.55;;;8.98;;
56173;SDS011;42058;52.308;20.924;2022-10-31T01:13:46;14.83;;;9.50;;
56173;SDS011;42058;52.308;20.924;2022-10-31T01:16:17;14.65;;;9.45;;
56173;SDS011;42058;52.308;20.924;2022-10-31T01:18:46;13.58;;;9.40;;
56173;SDS011;42058;52.308;20.924;2022-10-31T01:21:17;19.23;;;9.93;;
56173;SDS011;42058;52.308;20.924;2022-10-31T01:23:50;13.08;;;8.48;;
56173;SDS011;42058;52.308;20.924;2022-10-31T01:26:24;14.98;;;9.38;;
56173;SDS011;42058;52.308;20.924;2022-10-31T01:28:49;14.63;;;9.45;;
56173;SDS011;42058;52.308;20.924;2022-10-31T01:31:23;17.87;;;9.28;;
56173;SDS011;42058;52.308;20.924;2022-10-31T01:33:53;17.32;;;9.45;;
56173;SDS011;42058;52.308;20.924;2022-10-31T01:36:20;14.55;;;9.68;;
56173;SDS011;42058;52.308;20.924;2022-10-31T01:38:50;21.68;;;12.65;;
56173;SDS011;42058;52.308;20.924;2022-10-31T01:41:20;20.62;;;12.03;;
56173;SDS011;42058;52.308;20.924;2022-10-31T01:43:50;20.60;;;12.23;;
56173;SDS011;42058;52.308;20.924;2022-10-31T01:46:27;15.90;;;11.20;;
56173;SDS011;42058;52.308;20.924;2022-10-31T01:48:57;20.82;;;12.05;;
56173;SDS011;42058;52.308;20.924;2022-10-31T01:51:29;27.70;;;15.35;;
56173;SDS011;42058;52.308;20.924;2022-10-31T01:54:01;33.73;;;18.57;;
56173;SDS011;42058;52.308;20.924;2022-10-31T01:56:30;34.03;;;18.73;;
56173;SDS011;42058;52.308;20.924;2022-10-31T01:58:59;37.25;;;19.10;;
56173;SDS011;42058;52.308;20.924;2022-10-31T02:01:28;33.08;;;19.07;;
56173;SDS011;42058;52.308;20.924;2022-10-31T02:03:54;38.25;;;18.92;;
56173;SDS011;42058;52.308;20.924;2022-10-31T02:06:25;34.25;;;18.55;;
56173;SDS011;42058;52.308;20.924;2022-10-31T02:09:04;29.87;;;17.65;;
56173;SDS011;42058;52.308;20.924;2022-10-31T02:11:31;32.83;;;16.30;;
56173;SDS011;42058;52.308;20.924;2022-10-31T02:14:00;26.20;;;15.10;;
56173;SDS011;42058;52.308;20.924;2022-10-31T02:16:28;30.35;;;16.17;;
56173;SDS011;42058;52.308;20.924;2022-10-31T02:18:54;28.42;;;14.05;;
56173;SDS011;42058;52.308;20.924;2022-10-31T02:21:24;23.07;;;14.53;;
56173;SDS011;42058;52.308;20.924;2022-10-31T02:27:21;23.07;;;13.35;;
56173;SDS011;42058;52.308;20.924;2022-10-31T02:29:54;24.45;;;12.45;;
56173;SDS011;42058;52.308;20.924;2022-10-31T02:35:48;18.62;;;10.98;;
56173;SDS011;42058;52.308;20.924;2022-10-31T02:38:42;17.10;;;10.05;;
56173;SDS011;42058;52.308;20.924;2022-10-31T02:41:23;17.95;;;10.28;;
56173;SDS011;42058;52.308;20.924;2022-10-31T02:44:09;21.12;;;11.68;;
56173;SDS011;42058;52.308;20.924;2022-10-31T02:46:49;16.57;;;9.63;;
56173;SDS011;42058;52.308;20.924;2022-10-31T02:50:26;16.23;;;9.45;;
56173;SDS011;42058;52.308;20.924;2022-10-31T02:52:18;17.45;;;9.60;;
56173;SDS011;42058;52.308;20.924;2022-10-31T02:54:47;21.93;;;10.60;;
56173;SDS011;42058;52.308;20.924;2022-10-31T02:57:14;16.37;;;9.90;;
56173;SDS011;42058;52.308;20.924;2022-10-31T02:59:46;18.95;;;9.80;;
56173;SDS011;42058;52.308;20.924;2022-10-31T03:02:22;17.73;;;10.82;;
56173;SDS011;42058;52.308;20.924;2022-10-31T03:10:42;23.22;;;11.10;;
56173;SDS011;42058;52.308;20.924;2022-10-31T03:16:27;18.52;;;10.70;;
56173;SDS011;42058;52.308;20.924;2022-10-31T03:19:02;16.55;;;9.20;;
56173;SDS011;42058;52.308;20.924;2022-10-31T03:21:50;16.00;;;10.35;;
56173;SDS011;42058;52.308;20.924;2022-10-31T03:24:20;16.42;;;9.13;;
56173;SDS011;42058;52.308;20.924;2022-10-31T03:26:52;20.90;;;10.72;;
56173;SDS011;42058;52.308;20.924;2022-10-31T03:29:22;17.05;;;10.23;;
56173;SDS011;42058;52.308;20.924;2022-10-31T03:31:57;21.00;;;10.40;;
56173;SDS011;42058;52.308;20.924;2022-10-31T03:34:36;16.00;;;9.38;;
56173;SDS011;42058;52.308;20.924;2022-10-31T03:37:07;17.82;;;9.65;;
56173;SDS011;42058;52.308;20.924;2022-10-31T03:39:36;16.82;;;9.68;;
56173;SDS011;42058;52.308;20.924;2022-10-31T03:42:11;16.02;;;9.73;;
56173;SDS011;42058;52.308;20.924;2022-10-31T03:44:38;14.80;;;10.08;;
56173;SDS011;42058;52.308;20.924;2022-10-31T03:47:08;17.07;;;10.20;;
56173;SDS011;42058;52.308;20.924;2022-10-31T03:49:34;15.83;;;9.93;;
56173;SDS011;42058;52.308;20.924;2022-10-31T03:57:58;19.05;;;10.85;;
56173;SDS011;42058;52.308;20.924;2022-10-31T04:00:38;20.90;;;11.20;;
56173;SDS011;42058;52.308;20.924;2022-10-31T04:03:15;18.02;;;11.08;;
56173;SDS011;42058;52.308;20.924;2022-10-31T04:05:56;21.73;;;12.20;;
56173;SDS011;42058;52.308;20.924;2022-10-31T04:08:28;20.05;;;11.90;;
56173;SDS011;42058;52.308;20.924;2022-10-31T04:10:59;21.17;;;12.30;;
56173;SDS011;42058;52.308;20.924;2022-10-31T04:13:27;26.65;;;12.47;;
56173;SDS011;42058;52.308;20.924;2022-10-31T04:15:59;25.95;;;12.45;;
56173;SDS011;42058;52.308;20.924;2022-10-31T04:18:25;23.65;;;13.43;;
56173;SDS011;42058;52.308;20.924;2022-10-31T04:20:59;23.22;;;13.05;;
56173;SDS011;42058;52.308;20.924;2022-10-31T04:23:32;28.62;;;14.40;;
56173;SDS011;42058;52.308;20.924;2022-10-31T04:26:02;23.80;;;13.40;;
56173;SDS011;42058;52.308;20.924;2022-10-31T04:28:28;26.12;;;13.25;;
56173;SDS011;42058;52.308;20.924;2022-10-31T04:30:54;32.75;;;13.32;;
56173;SDS011;42058;52.308;20.924;2022-10-31T04:33:21;27.73;;;13.85;;
56173;SDS011;42058;52.308;20.924;2022-10-31T04:35:47;27.62;;;13.00;;
56173;SDS011;42058;52.308;20.924;2022-10-31T04:38:14;26.02;;;12.98;;
56173;SDS011;42058;52.308;20.924;2022-10-31T04:40:40;29.10;;;13.28;;
56173;SDS011;42058;52.308;20.924;2022-10-31T04:43:10;29.72;;;13.20;;
56173;SDS011;42058;52.308;20.924;2022-10-31T04:45:37;37.48;;;12.70;;
56173;SDS011;42058;52.308;20.924;2022-10-31T04:48:04;26.10;;;12.43;;
56173;SDS011;42058;52.308;20.924;2022-10-31T04:50:32;22.85;;;13.85;;
56173;SDS011;42058;52.308;20.924;2022-10-31T04:52:58;28.00;;;12.90;;
56173;SDS011;42058;52.308;20.924;2022-10-31T04:55:26;26.20;;;14.20;;
56173;SDS011;42058;52.308;20.924;2022-10-31T04:57:59;21.70;;;13.22;;
56173;SDS011;42058;52.308;20.924;2022-10-31T05:00:26;29.27;;;14.90;;
56173;SDS011;42058;52.308;20.924;2022-10-31T05:02:53;25.55;;;13.75;;
56173;SDS011;42058;52.308;20.924;2022-10-31T05:05:23;32.03;;;13.95;;
56173;SDS011;42058;52.308;20.924;2022-10-31T05:07:53;26.57;;;13.55;;
56173;SDS011;42058;52.308;20.924;2022-10-31T05:10:25;26.33;;;13.78;;
56173;SDS011;42058;52.308;20.924;2022-10-31T05:12:56;21.68;;;13.88;;
56173;SDS011;42058;52.308;20.924;2022-10-31T05:15:44;32.67;;;14.58;;
56173;SDS011;42058;52.308;20.924;2022-10-31T05:18:20;26.57;;;15.13;;
56173;SDS011;42058;52.308;20.924;2022-10-31T05:21:05;28.83;;;15.70;;
56173;SDS011;42058;52.308;20.924;2022-10-31T05:23:36;32.20;;;17.25;;
56173;SDS011;42058;52.308;20.924;2022-10-31T05:26:03;28.05;;;15.95;;
56173;SDS011;42058;52.308;20.924;2022-10-31T05:28:30;34.10;;;17.48;;
56173;SDS011;42058;52.308;20.924;2022-10-31T05:30:56;30.70;;;18.12;;
56173;SDS011;42058;52.308;20.924;2022-10-31T05:33:22;32.65;;;18.73;;
56173;SDS011;42058;52.308;20.924;2022-10-31T05:36:07;32.93;;;18.70;;
56173;SDS011;42058;52.308;20.924;2022-10-31T05:38:42;31.45;;;17.85;;
56173;SDS011;42058;52.308;20.924;2022-10-31T05:41:12;33.23;;;17.90;;
56173;SDS011;42058;52.308;20.924;2022-10-31T05:43:40;33.55;;;18.02;;
56173;SDS011;42058;52.308;20.924;2022-10-31T05:46:06;36.33;;;19.77;;
56173;SDS011;42058;52.308;20.924;2022-10-31T05:48:37;32.75;;;19.23;;
56173;SDS011;42058;52.308;20.924;2022-10-31T05:51:22;34.35;;;19.07;;
56173;SDS011;42058;52.308;20.924;2022-10-31T05:53:48;35.58;;;20.35;;
56173;SDS011;42058;52.308;20.924;2022-10-31T05:56:15;37.05;;;20.43;;
56173;SDS011;42058;52.308;20.924;2022-10-31T05:58:42;38.30;;;20.80;;
56173;SDS011;42058;52.308;20.924;2022-10-31T06:01:08;41.80;;;22.42;;
56173;SDS011;42058;52.308;20.924;2022-10-31T06:03:34;46.77;;;25.37;;
56173;SDS011;42058;52.308;20.924;2022-10-31T06:06:02;52.30;;;25.45;;
56173;SDS011;42058;52.308;20.924;2022-10-31T06:08:30;48.87;;;26.42;;
56173;SDS011;42058;52.308;20.924;2022-10-31T06:10:58;54.63;;;30.15;;
56173;SDS011;42058;52.308;20.924;2022-10-31T06:13:43;55.78;;;31.33;;
56173;SDS011;42058;52.308;20.924;2022-10-31T06:16:15;59.77;;;31.30;;
56173;SDS011;42058;52.308;20.924;2022-10-31T06:18:41;63.08;;;31.93;;
56173;SDS011;42058;52.308;20.924;2022-10-31T06:21:08;66.80;;;32.35;;
56173;SDS011;42058;52.308;20.924;2022-10-31T06:23:35;66.75;;;32.05;;
56173;SDS011;42058;52.308;20.924;2022-10-31T06:26:03;69.15;;;33.08;;
56173;SDS011;42058;52.308;20.924;2022-10-31T06:28:29;62.83;;;30.60;;
56173;SDS011;42058;52.308;20.924;2022-10-31T06:30:57;69.90;;;32.90;;
56173;SDS011;42058;52.308;20.924;2022-10-31T06:33:23;59.15;;;30.88;;
56173;SDS011;42058;52.308;20.924;2022-10-31T06:35:57;68.90;;;30.25;;
56173;SDS011;42058;52.308;20.924;2022-10-31T06:38:23;61.20;;;31.48;;
56173;SDS011;42058;52.308;20.924;2022-10-31T06:40:52;58.35;;;30.95;;
56173;SDS011;42058;52.308;20.924;2022-10-31T06:43:21;55.98;;;29.87;;
56173;SDS011;42058;52.308;20.924;2022-10-31T06:45:49;60.67;;;30.12;;
56173;SDS011;42058;52.308;20.924;2022-10-31T06:48:20;54.10;;;30.02;;
56173;SDS011;42058;52.308;20.924;2022-10-31T06:51:05;63.87;;;31.75;;
56173;SDS011;42058;52.308;20.924;2022-10-31T06:53:31;60.03;;;32.05;;
56173;SDS011;42058;52.308;20.924;2022-10-31T06:55:57;54.27;;;31.33;;
56173;SDS011;42058;52.308;20.924;2022-10-31T06:58:24;54.65;;;29.92;;
56173;SDS011;42058;52.308;20.924;2022-10-31T07:00:50;58.90;;;30.92;;
56173;SDS011;42058;52.308;20.924;2022-10-31T07:03:16;55.00;;;29.52;;
56173;SDS011;42058;52.308;20.924;2022-10-31T07:05:43;56.77;;;30.57;;
56173;SDS011;42058;52.308;20.924;2022-10-31T07:08:11;53.38;;;29.50;;
56173;SDS011;42058;52.308;20.924;2022-10-31T07:10:39;49.67;;;28.23;;
56173;SDS011;42058;52.308;20.924;2022-10-31T07:13:12;53.17;;;29.45;;
56173;SDS011;42058;52.308;20.924;2022-10-31T07:15:41;55.28;;;28.75;;
56173;SDS011;42058;52.308;20.924;2022-10-31T07:18:09;45.35;;;27.90;;
56173;SDS011;42058;52.308;20.924;2022-10-31T07:20:37;44.98;;;27.80;;
56173;SDS011;42058;52.308;20.924;2022-10-31T07:23:03;48.40;;;29.15;;
56173;SDS011;42058;52.308;20.924;2022-10-31T07:25:30;48.08;;;29.55;;
56173;SDS011;42058;52.308;20.924;2022-10-31T07:28:03;53.63;;;29.00;;
56173;SDS011;42058;52.308;20.924;2022-10-31T07:30:31;48.08;;;28.23;;
56173;SDS011;42058;52.308;20.924;2022-10-31T07:32:57;55.50;;;30.95;;
56173;SDS011;42058;52.308;20.924;2022-10-31T07:35:26;55.33;;;28.07;;
56173;SDS011;42058;52.308;20.924;2022-10-31T07:37:56;49.83;;;27.35;;
56173;SDS011;42058;52.308;20.924;2022-10-31T07:40:23;49.75;;;27.22;;
56173;SDS011;42058;52.308;20.924;2022-10-31T07:42:52;44.35;;;25.37;;
56173;SDS011;42058;52.308;20.924;2022-10-31T07:45:37;50.05;;;26.65;;
56173;SDS011;42058;52.308;20.924;2022-10-31T07:48:08;41.53;;;23.73;;
56173;SDS011;42058;52.308;20.924;2022-10-31T07:50:52;46.00;;;25.00;;
56173;SDS011;42058;52.308;20.924;2022-10-31T07:53:20;42.55;;;23.25;;
56173;SDS011;42058;52.308;20.924;2022-10-31T07:55:54;40.90;;;22.77;;
56173;SDS011;42058;52.308;20.924;2022-10-31T07:58:22;39.98;;;22.27;;
56173;SDS011;42058;52.308;20.924;2022-10-31T08:00:50;42.27;;;21.20;;
56173;SDS011;42058;52.308;20.924;2022-10-31T08:03:18;38.55;;;21.65;;
56173;SDS011;42058;52.308;20.924;2022-10-31T08:05:54;42.25;;;21.15;;
56173;SDS011;42058;52.308;20.924;2022-10-31T08:10:53;39.95;;;21.90;;
56173;SDS011;42058;52.308;20.924;2022-10-31T08:13:20;47.15;;;22.55;;
56173;SDS011;42058;52.308;20.924;2022-10-31T08:15:48;43.63;;;21.65;;
56173;SDS011;42058;52.308;20.924;2022-10-31T08:18:17;49.08;;;22.10;;
56173;SDS011;42058;52.308;20.924;2022-10-31T08:20:43;43.38;;;21.70;;
56173;SDS011;42058;52.308;20.924;2022-10-31T08:23:10;46.15;;;23.07;;
56173;SDS011;42058;52.308;20.924;2022-10-31T08:25:38;42.25;;;21.50;;
56173;SDS011;42058;52.308;20.924;2022-10-31T08:28:05;40.40;;;21.27;;
56173;SDS011;42058;52.308;20.924;2022-10-31T08:30:35;41.42;;;21.33;;
56173;SDS011;42058;52.308;20.924;2022-10-31T08:33:21;42.25;;;20.90;;
56173;SDS011;42058;52.308;20.924;2022-10-31T08:36:04;40.40;;;21.07;;
56173;SDS011;42058;52.308;20.924;2022-10-31T08:38:34;44.03;;;22.45;;
56173;SDS011;42058;52.308;20.924;2022-10-31T08:41:01;42.23;;;21.82;;
56173;SDS011;42058;52.308;20.924;2022-10-31T08:43:27;46.18;;;21.42;;
56173;SDS011;42058;52.308;20.924;2022-10-31T08:45:53;41.92;;;21.95;;
56173;SDS011;42058;52.308;20.924;2022-10-31T08:48:22;43.28;;;21.23;;
56173;SDS011;42058;52.308;20.924;2022-10-31T08:50:48;45.55;;;22.45;;
56173;SDS011;42058;52.308;20.924;2022-10-31T08:53:18;45.03;;;20.97;;
56173;SDS011;42058;52.308;20.924;2022-10-31T08:55:54;47.78;;;23.02;;
56173;SDS011;42058;52.308;20.924;2022-10-31T08:58:24;42.70;;;21.68;;
56173;SDS011;42058;52.308;20.924;2022-10-31T09:00:52;40.23;;;21.35;;
56173;SDS011;42058;52.308;20.924;2022-10-31T09:03:22;43.83;;;22.52;;
56173;SDS011;42058;52.308;20.924;2022-10-31T09:05:55;40.23;;;21.42;;
56173;SDS011;42058;52.308;20.924;2022-10-31T09:08:25;42.33;;;21.62;;
56173;SDS011;42058;52.308;20.924;2022-10-31T09:10:51;42.60;;;22.07;;
56173;SDS011;42058;52.308;20.924;2022-10-31T09:13:20;40.17;;;21.25;;
56173;SDS011;42058;52.308;20.924;2022-10-31T09:15:49;42.33;;;22.35;;
56173;SDS011;42058;52.308;20.924;2022-10-31T09:18:22;41.92;;;20.70;;
56173;SDS011;42058;52.308;20.924;2022-10-31T09:20:56;38.20;;;21.02;;
56173;SDS011;42058;52.308;20.924;2022-10-31T09:23:26;39.05;;;20.65;;
56173;SDS011;42058;52.308;20.924;2022-10-31T09:25:52;44.03;;;22.40;;
56173;SDS011;42058;52.308;20.924;2022-10-31T09:28:36;42.43;;;20.82;;
56173;SDS011;42058;52.308;20.924;2022-10-31T09:31:04;42.90;;;22.22;;
56173;SDS011;42058;52.308;20.924;2022-10-31T09:33:39;39.73;;;20.23;;
56173;SDS011;42058;52.308;20.924;2022-10-31T09:36:07;38.23;;;20.02;;
56173;SDS011;42058;52.308;20.924;2022-10-31T09:38:34;35.40;;;19.37;;
56173;SDS011;42058;52.308;20.924;2022-10-31T09:44:08;31.65;;;18.00;;
56173;SDS011;42058;52.308;20.924;2022-10-31T09:46:46;34.48;;;19.17;;
56173;SDS011;42058;52.308;20.924;2022-10-31T09:49:35;33.65;;;18.00;;
56173;SDS011;42058;52.308;20.924;2022-10-31T09:52:21;31.57;;;16.80;;
56173;SDS011;42058;52.308;20.924;2022-10-31T09:57:45;32.73;;;18.48;;
56173;SDS011;42058;52.308;20.924;2022-10-31T10:00:20;30.25;;;17.37;;
56173;SDS011;42058;52.308;20.924;2022-10-31T10:05:46;36.93;;;18.93;;
56173;SDS011;42058;52.308;20.924;2022-10-31T10:08:47;31.23;;;18.10;;
56173;SDS011;42058;52.308;20.924;2022-10-31T10:11:47;31.10;;;18.00;;
56173;SDS011;42058;52.308;20.924;2022-10-31T10:14:32;29.60;;;16.77;;
56173;SDS011;42058;52.308;20.924;2022-10-31T10:20:21;27.67;;;15.83;;
56173;SDS011;42058;52.308;20.924;2022-10-31T10:25:40;29.17;;;17.47;;
56173;SDS011;42058;52.308;20.924;2022-10-31T10:31:06;32.40;;;17.20;;
56173;SDS011;42058;52.308;20.924;2022-10-31T10:39:43;35.90;;;19.90;;
56173;SDS011;42058;52.308;20.924;2022-10-31T10:42:18;27.57;;;17.80;;
56173;SDS011;42058;52.308;20.924;2022-10-31T10:45:13;29.93;;;18.27;;
56173;SDS011;42058;52.308;20.924;2022-10-31T10:48:05;28.10;;;17.67;;
56173;SDS011;42058;52.308;20.924;2022-10-31T10:50:53;30.35;;;18.62;;
56173;SDS011;42058;52.308;20.924;2022-10-31T10:59:28;30.30;;;19.80;;
56173;SDS011;42058;52.308;20.924;2022-10-31T11:01:55;29.07;;;20.00;;
56173;SDS011;42058;52.308;20.924;2022-10-31T11:04:33;31.13;;;20.03;;
56173;SDS011;42058;52.308;20.924;2022-10-31T11:07:45;32.37;;;19.83;;
56173;SDS011;42058;52.308;20.924;2022-10-31T11:10:12;32.20;;;21.37;;
56173;SDS011;42058;52.308;20.924;2022-10-31T11:12:43;32.47;;;19.53;;
56173;SDS011;42058;52.308;20.924;2022-10-31T11:15:21;34.10;;;21.70;;
56173;SDS011;42058;52.308;20.924;2022-10-31T11:17:50;31.67;;;20.23;;
56173;SDS011;42058;52.308;20.924;2022-10-31T11:23:15;30.10;;;20.00;;
56173;SDS011;42058;52.308;20.924;2022-10-31T11:25:47;27.33;;;18.00;;
56173;SDS011;42058;52.308;20.924;2022-10-31T11:28:23;28.53;;;20.20;;
56173;SDS011;42058;52.308;20.924;2022-10-31T11:30:58;33.60;;;19.13;;
56173;SDS011;42058;52.308;20.924;2022-10-31T11:36:50;32.17;;;20.17;;
56173;SDS011;42058;52.308;20.924;2022-10-31T11:38:48;32.47;;;19.23;;
56173;SDS011;42058;52.308;20.924;2022-10-31T11:41:16;35.37;;;19.07;;
56173;SDS011;42058;52.308;20.924;2022-10-31T11:43:53;27.83;;;19.10;;
56173;SDS011;42058;52.308;20.924;2022-10-31T11:46:33;27.10;;;18.53;;
56173;SDS011;42058;52.308;20.924;2022-10-31T11:49:28;37.03;;;19.77;;
56173;SDS011;42058;52.308;20.924;2022-10-31T11:52:00;29.10;;;18.20;;
56173;SDS011;42058;52.308;20.924;2022-10-31T11:54:44;28.17;;;17.70;;
56173;SDS011;42058;52.308;20.924;2022-10-31T11:57:33;29.20;;;18.43;;
56173;SDS011;42058;52.308;20.924;2022-10-31T12:00:19;32.87;;;17.43;;
56173;SDS011;42058;52.308;20.924;2022-10-31T12:08:36;26.13;;;18.13;;
56173;SDS011;42058;52.308;20.924;2022-10-31T12:16:41;28.10;;;17.40;;
56173;SDS011;42058;52.308;20.924;2022-10-31T12:22:23;24.50;;;15.93;;
56173;SDS011;42058;52.308;20.924;2022-10-31T12:25:28;48.30;;;19.33;;
56173;SDS011;42058;52.308;20.924;2022-10-31T12:31:34;26.30;;;15.43;;
56173;SDS011;42058;52.308;20.924;2022-10-31T12:34:20;23.93;;;15.60;;
56173;SDS011;42058;52.308;20.924;2022-10-31T12:37:12;24.60;;;15.40;;
56173;SDS011;42058;52.308;20.924;2022-10-31T12:39:54;24.50;;;15.33;;
56173;SDS011;42058;52.308;20.924;2022-10-31T12:45:30;26.17;;;14.83;;
56173;SDS011;42058;52.308;20.924;2022-10-31T12:48:22;22.97;;;14.60;;
56173;SDS011;42058;52.308;20.924;2022-10-31T12:51:18;23.43;;;14.53;;
56173;SDS011;42058;52.308;20.924;2022-10-31T12:53:59;21.40;;;13.27;;
56173;SDS011;42058;52.308;20.924;2022-10-31T13:05:16;22.00;;;14.13;;
56173;SDS011;42058;52.308;20.924;2022-10-31T13:08:11;24.13;;;14.97;;
56173;SDS011;42058;52.308;20.924;2022-10-31T13:10:45;30.33;;;15.87;;
56173;SDS011;42058;52.308;20.924;2022-10-31T13:13:40;27.00;;;14.67;;
56173;SDS011;42058;52.308;20.924;2022-10-31T13:16:16;23.00;;;15.30;;
56173;SDS011;42058;52.308;20.924;2022-10-31T13:18:56;21.03;;;14.17;;
56173;SDS011;42058;52.308;20.924;2022-10-31T13:21:59;21.90;;;14.67;;
56173;SDS011;42058;52.308;20.924;2022-10-31T13:27:44;21.27;;;13.72;;
56173;SDS011;42058;52.308;20.924;2022-10-31T13:30:15;24.10;;;15.47;;
56173;SDS011;42058;52.308;20.924;2022-10-31T13:32:53;22.77;;;14.13;;
56173;SDS011;42058;52.308;20.924;2022-10-31T13:41:24;23.00;;;14.10;;
56173;SDS011;42058;52.308;20.924;2022-10-31T13:46:52;24.93;;;14.30;;
56173;SDS011;42058;52.308;20.924;2022-10-31T13:49:26;26.07;;;15.33;;
56173;SDS011;42058;52.308;20.924;2022-10-31T13:54:43;32.77;;;18.93;;
56173;SDS011;42058;52.308;20.924;2022-10-31T13:57:19;29.97;;;17.63;;
56173;SDS011;42058;52.308;20.924;2022-10-31T14:00:00;29.13;;;17.53;;
56173;SDS011;42058;52.308;20.924;2022-10-31T14:02:44;29.77;;;18.23;;
56173;SDS011;42058;52.308;20.924;2022-10-31T14:08:02;33.83;;;18.63;;
56173;SDS011;42058;52.308;20.924;2022-10-31T14:10:31;36.07;;;18.87;;
56173;SDS011;42058;52.308;20.924;2022-10-31T14:15:53;29.47;;;18.47;;
56173;SDS011;42058;52.308;20.924;2022-10-31T14:18:33;38.47;;;18.93;;
56173;SDS011;42058;52.308;20.924;2022-10-31T14:23:54;34.27;;;19.20;;
56173;SDS011;42058;52.308;20.924;2022-10-31T14:28:57;29.77;;;19.60;;
56173;SDS011;42058;52.308;20.924;2022-10-31T14:31:29;33.20;;;20.47;;
56173;SDS011;42058;52.308;20.924;2022-10-31T14:34:04;31.83;;;19.77;;
56173;SDS011;42058;52.308;20.924;2022-10-31T14:40:16;35.13;;;20.60;;
56173;SDS011;42058;52.308;20.924;2022-10-31T14:51:36;36.57;;;21.97;;
56173;SDS011;42058;52.308;20.924;2022-10-31T14:54:11;37.63;;;22.30;;
56173;SDS011;42058;52.308;20.924;2022-10-31T14:56:53;41.60;;;22.40;;
56173;SDS011;42058;52.308;20.924;2022-10-31T14:59:24;40.80;;;21.17;;
56173;SDS011;42058;52.308;20.924;2022-10-31T15:01:56;33.53;;;21.52;;
56173;SDS011;42058;52.308;20.924;2022-10-31T15:04:26;38.70;;;22.27;;
56173;SDS011;42058;52.308;20.924;2022-10-31T15:07:11;35.77;;;20.47;;
56173;SDS011;42058;52.308;20.924;2022-10-31T15:09:44;37.03;;;21.50;;
56173;SDS011;42058;52.308;20.924;2022-10-31T15:12:29;37.67;;;22.17;;
56173;SDS011;42058;52.308;20.924;2022-10-31T15:15:17;35.77;;;20.77;;
56173;SDS011;42058;52.308;20.924;2022-10-31T15:17:46;37.87;;;21.20;;
56173;SDS011;42058;52.308;20.924;2022-10-31T15:20:20;44.27;;;23.57;;
56173;SDS011;42058;52.308;20.924;2022-10-31T15:22:51;41.92;;;22.10;;
56173;SDS011;42058;52.308;20.924;2022-10-31T15:25:24;41.63;;;21.17;;
56173;SDS011;42058;52.308;20.924;2022-10-31T15:27:57;39.37;;;21.83;;
56173;SDS011;42058;52.308;20.924;2022-10-31T15:30:28;40.00;;;22.40;;
56173;SDS011;42058;52.308;20.924;2022-10-31T15:32:55;40.77;;;22.80;;
56173;SDS011;42058;52.308;20.924;2022-10-31T15:35:28;46.90;;;22.60;;
56173;SDS011;42058;52.308;20.924;2022-10-31T15:37:56;42.77;;;22.17;;
56173;SDS011;42058;52.308;20.924;2022-10-31T15:40:25;39.93;;;21.50;;
56173;SDS011;42058;52.308;20.924;2022-10-31T15:42:57;39.20;;;21.43;;
56173;SDS011;42058;52.308;20.924;2022-10-31T15:45:29;44.80;;;22.77;;
56173;SDS011;42058;52.308;20.924;2022-10-31T15:47:57;41.50;;;21.73;;
56173;SDS011;42058;52.308;20.924;2022-10-31T15:50:46;43.27;;;23.40;;
56173;SDS011;42058;52.308;20.924;2022-10-31T15:53:24;41.87;;;22.37;;
56173;SDS011;42058;52.308;20.924;2022-10-31T15:55:59;43.17;;;21.00;;
56173;SDS011;42058;52.308;20.924;2022-10-31T15:58:28;45.70;;;21.83;;
56173;SDS011;42058;52.308;20.924;2022-10-31T16:00:59;40.37;;;21.43;;
56173;SDS011;42058;52.308;20.924;2022-10-31T16:03:28;38.97;;;21.47;;
56173;SDS011;42058;52.308;20.924;2022-10-31T16:06:01;42.07;;;20.80;;
56173;SDS011;42058;52.308;20.924;2022-10-31T16:13:41;47.10;;;22.27;;
56173;SDS011;42058;52.308;20.924;2022-10-31T16:16:21;43.30;;;22.37;;
56173;SDS011;42058;52.308;20.924;2022-10-31T16:18:48;44.70;;;21.77;;
56173;SDS011;42058;52.308;20.924;2022-10-31T16:23:59;46.47;;;22.87;;
56173;SDS011;42058;52.308;20.924;2022-10-31T16:26:32;43.30;;;22.70;;
56173;SDS011;42058;52.308;20.924;2022-10-31T16:28:59;47.40;;;22.80;;
56173;SDS011;42058;52.308;20.924;2022-10-31T16:31:26;44.70;;;22.73;;
56173;SDS011;42058;52.308;20.924;2022-10-31T16:34:10;44.20;;;21.43;;
56173;SDS011;42058;52.308;20.924;2022-10-31T16:36:41;43.23;;;21.73;;
56173;SDS011;42058;52.308;20.924;2022-10-31T16:39:08;49.97;;;24.27;;
56173;SDS011;42058;52.308;20.924;2022-10-31T16:41:36;48.77;;;23.90;;
56173;SDS011;42058;52.308;20.924;2022-10-31T16:44:23;57.25;;;24.65;;
56173;SDS011;42058;52.308;20.924;2022-10-31T16:49:38;49.97;;;24.97;;
56173;SDS011;42058;52.308;20.924;2022-10-31T16:52:04;66.37;;;28.00;;
56173;SDS011;42058;52.308;20.924;2022-10-31T16:54:30;56.90;;;26.73;;
56173;SDS011;42058;52.308;20.924;2022-10-31T16:56:57;57.80;;;25.53;;
56173;SDS011;42058;52.308;20.924;2022-10-31T16:59:25;54.77;;;25.50;;